Terminal Aerodrome Forecast
Issued by NWS Topeka, KS

Home | Current Version | Previous Version | Text Only | Print | Product List | Glossary On
Versions: 1 2 3 4 5 6 7 8 9 10 11 12 13 14 15 16 17 18 19 20 21 22 23 24
923
FTUS43 KTOP 252115 AAB
TAFTOP
TAF AMD
KTOP 252115Z 2521/2618 02005KT P6SM SCT030 OVC040
     FM260800 06006KT 5SM -SHRA VCTS BKN015 OVC025CB
     FM261500 08005KT P6SM OVC040=

USA.gov is the U.S. government's official web portal to all federal, state and local government web resources and services.